sensor_id;sensor_type;location;lat;lon;timestamp;P1;durP1;ratioP1;P2;durP2;ratioP2
57315;SDS011;43156;50.942;18.144;2023-06-26T00:17:10;7.70;;;3.90;;
57315;SDS011;43156;50.942;18.144;2023-06-26T00:27:13;13.40;;;4.90;;
57315;SDS011;43156;50.942;18.144;2023-06-26T00:37:10;13.80;;;3.80;;
57315;SDS011;43156;50.942;18.144;2023-06-26T00:47:32;7.00;;;5.40;;
57315;SDS011;43156;50.942;18.144;2023-06-26T00:57:33;7.80;;;6.00;;
57315;SDS011;43156;50.942;18.144;2023-06-26T01:07:35;9.40;;;4.80;;
57315;SDS011;43156;50.942;18.144;2023-06-26T01:17:31;8.30;;;4.60;;
57315;SDS011;43156;50.942;18.144;2023-06-26T01:28:13;5.60;;;5.10;;
57315;SDS011;43156;50.942;18.144;2023-06-26T01:38:25;3.60;;;3.30;;
57315;SDS011;43156;50.942;18.144;2023-06-26T01:48:34;5.60;;;3.20;;
57315;SDS011;43156;50.942;18.144;2023-06-26T01:59:14;10.10;;;4.00;;
57315;SDS011;43156;50.942;18.144;2023-06-26T02:09:37;6.30;;;5.30;;
57315;SDS011;43156;50.942;18.144;2023-06-26T02:19:38;4.00;;;3.70;;
57315;SDS011;43156;50.942;18.144;2023-06-26T02:29:54;6.60;;;4.50;;
57315;SDS011;43156;50.942;18.144;2023-06-26T02:40:02;16.60;;;4.90;;
57315;SDS011;43156;50.942;18.144;2023-06-26T02:50:01;8.60;;;5.00;;
57315;SDS011;43156;50.942;18.144;2023-06-26T03:00:10;5.90;;;5.20;;
57315;SDS011;43156;50.942;18.144;2023-06-26T03:10:22;5.70;;;4.70;;
57315;SDS011;43156;50.942;18.144;2023-06-26T03:20:32;4.80;;;4.40;;
57315;SDS011;43156;50.942;18.144;2023-06-26T03:23:04;6.60;;;5.70;;
57315;SDS011;43156;50.942;18.144;2023-06-26T03:33:07;5.80;;;4.20;;
57315;SDS011;43156;50.942;18.144;2023-06-26T03:43:07;18.30;;;5.20;;
57315;SDS011;43156;50.942;18.144;2023-06-26T03:53:18;16.90;;;3.90;;
57315;SDS011;43156;50.942;18.144;2023-06-26T04:03:14;4.90;;;4.50;;
57315;SDS011;43156;50.942;18.144;2023-06-26T04:13:25;7.00;;;6.40;;
57315;SDS011;43156;50.942;18.144;2023-06-26T04:23:33;7.50;;;6.00;;
57315;SDS011;43156;50.942;18.144;2023-06-26T04:33:43;12.60;;;7.20;;
57315;SDS011;43156;50.942;18.144;2023-06-26T04:43:52;9.70;;;7.30;;
57315;SDS011;43156;50.942;18.144;2023-06-26T04:51:25;8.40;;;7.60;;
57315;SDS011;43156;50.942;18.144;2023-06-26T05:01:34;7.20;;;6.30;;
57315;SDS011;43156;50.942;18.144;2023-06-26T05:11:36;3.60;;;3.30;;
57315;SDS011;43156;50.942;18.144;2023-06-26T05:21:36;11.00;;;5.30;;
57315;SDS011;43156;50.942;18.144;2023-06-26T05:31:40;7.30;;;6.70;;
57315;SDS011;43156;50.942;18.144;2023-06-26T05:41:44;8.60;;;6.80;;
57315;SDS011;43156;50.942;18.144;2023-06-26T05:51:58;7.20;;;6.50;;
57315;SDS011;43156;50.942;18.144;2023-06-26T06:47:17;5.80;;;4.80;;
57315;SDS011;43156;50.942;18.144;2023-06-26T06:57:20;2.80;;;2.60;;
57315;SDS011;43156;50.942;18.144;2023-06-26T07:07:24;7.00;;;5.20;;
57315;SDS011;43156;50.942;18.144;2023-06-26T07:17:24;4.30;;;4.00;;
57315;SDS011;43156;50.942;18.144;2023-06-26T07:27:24;3.10;;;2.90;;
57315;SDS011;43156;50.942;18.144;2023-06-26T07:44:48;3.90;;;3.30;;
57315;SDS011;43156;50.942;18.144;2023-06-26T07:54:54;3.90;;;3.60;;
57315;SDS011;43156;50.942;18.144;2023-06-26T08:05:00;4.30;;;3.90;;
57315;SDS011;43156;50.942;18.144;2023-06-26T08:14:57;3.50;;;3.20;;
57315;SDS011;43156;50.942;18.144;2023-06-26T08:24:59;4.00;;;3.60;;
57315;SDS011;43156;50.942;18.144;2023-06-26T08:35:10;4.10;;;3.70;;
57315;SDS011;43156;50.942;18.144;2023-06-26T08:45:09;2.70;;;2.50;;
57315;SDS011;43156;50.942;18.144;2023-06-26T08:55:12;3.00;;;2.50;;
57315;SDS011;43156;50.942;18.144;2023-06-26T09:05:14;8.70;;;2.60;;
57315;SDS011;43156;50.942;18.144;2023-06-26T09:15:20;3.40;;;3.10;;
57315;SDS011;43156;50.942;18.144;2023-06-26T09:25:29;2.70;;;2.40;;
57315;SDS011;43156;50.942;18.144;2023-06-26T09:35:28;2.70;;;2.50;;
57315;SDS011;43156;50.942;18.144;2023-06-26T09:45:20;4.00;;;3.30;;
57315;SDS011;43156;50.942;18.144;2023-06-26T09:55:18;3.30;;;2.70;;
57315;SDS011;43156;50.942;18.144;2023-06-26T10:05:10;3.10;;;2.90;;
57315;SDS011;43156;50.942;18.144;2023-06-26T10:14:58;7.70;;;2.40;;
57315;SDS011;43156;50.942;18.144;2023-06-26T10:25:01;2.30;;;2.10;;
57315;SDS011;43156;50.942;18.144;2023-06-26T10:35:00;3.40;;;2.50;;
57315;SDS011;43156;50.942;18.144;2023-06-26T10:45:15;4.60;;;2.10;;
57315;SDS011;43156;50.942;18.144;2023-06-26T10:55:41;8.30;;;2.80;;
57315;SDS011;43156;50.942;18.144;2023-06-26T11:06:13;4.50;;;2.90;;
57315;SDS011;43156;50.942;18.144;2023-06-26T11:16:16;1.70;;;1.60;;
57315;SDS011;43156;50.942;18.144;2023-06-26T12:17:29;2.90;;;2.70;;
57315;SDS011;43156;50.942;18.144;2023-06-26T12:27:58;3.30;;;2.60;;
57315;SDS011;43156;50.942;18.144;2023-06-26T12:45:24;2.70;;;2.50;;
57315;SDS011;43156;50.942;18.144;2023-06-26T12:56:14;3.10;;;2.80;;
57315;SDS011;43156;50.942;18.144;2023-06-26T13:06:18;2.80;;;2.60;;
57315;SDS011;43156;50.942;18.144;2023-06-26T13:16:36;1.50;;;1.40;;
57315;SDS011;43156;50.942;18.144;2023-06-26T13:26:38;5.10;;;2.60;;
57315;SDS011;43156;50.942;18.144;2023-06-26T13:36:50;2.70;;;2.50;;
57315;SDS011;43156;50.942;18.144;2023-06-26T13:39:46;3.10;;;2.60;;
57315;SDS011;43156;50.942;18.144;2023-06-26T13:49:59;2.70;;;2.00;;
57315;SDS011;43156;50.942;18.144;2023-06-26T13:59:54;2.60;;;2.40;;
57315;SDS011;43156;50.942;18.144;2023-06-26T14:09:58;3.30;;;0.60;;
57315;SDS011;43156;50.942;18.144;2023-06-26T14:20:02;1.70;;;1.60;;
57315;SDS011;43156;50.942;18.144;2023-06-26T14:30:07;2.90;;;2.70;;
57315;SDS011;43156;50.942;18.144;2023-06-26T14:40:17;3.20;;;1.80;;
57315;SDS011;43156;50.942;18.144;2023-06-26T14:50:31;1.50;;;1.40;;
57315;SDS011;43156;50.942;18.144;2023-06-26T15:00:35;4.10;;;3.00;;
57315;SDS011;43156;50.942;18.144;2023-06-26T15:10:41;2.20;;;2.00;;
57315;SDS011;43156;50.942;18.144;2023-06-26T15:20:44;8.60;;;2.70;;
57315;SDS011;43156;50.942;18.144;2023-06-26T15:30:52;2.60;;;2.40;;
57315;SDS011;43156;50.942;18.144;2023-06-26T15:41:02;5.40;;;1.60;;
57315;SDS011;43156;50.942;18.144;2023-06-26T15:51:15;2.10;;;2.00;;
57315;SDS011;43156;50.942;18.144;2023-06-26T16:01:24;2.60;;;2.40;;
57315;SDS011;43156;50.942;18.144;2023-06-26T16:11:25;3.10;;;1.80;;
57315;SDS011;43156;50.942;18.144;2023-06-26T16:21:28;2.20;;;2.00;;
57315;SDS011;43156;50.942;18.144;2023-06-26T16:31:39;1.70;;;1.60;;
57315;SDS011;43156;50.942;18.144;2023-06-26T16:41:48;2.00;;;1.90;;
57315;SDS011;43156;50.942;18.144;2023-06-26T16:51:57;1.40;;;1.30;;
57315;SDS011;43156;50.942;18.144;2023-06-26T17:02:13;2.10;;;1.70;;
57315;SDS011;43156;50.942;18.144;2023-06-26T17:12:24;2.30;;;1.50;;
57315;SDS011;43156;50.942;18.144;2023-06-26T17:22:27;2.90;;;2.60;;
57315;SDS011;43156;50.942;18.144;2023-06-26T18:16:33;2.40;;;2.20;;
57315;SDS011;43156;50.942;18.144;2023-06-26T18:26:37;3.00;;;2.80;;
57315;SDS011;43156;50.942;18.144;2023-06-26T18:36:27;3.30;;;3.00;;
57315;SDS011;43156;50.942;18.144;2023-06-26T18:46:28;2.70;;;2.40;;
57315;SDS011;43156;50.942;18.144;2023-06-26T18:56:51;1.10;;;1.00;;
57315;SDS011;43156;50.942;18.144;2023-06-26T19:07:05;3.40;;;3.10;;
57315;SDS011;43156;50.942;18.144;2023-06-26T19:17:06;3.00;;;2.80;;
57315;SDS011;43156;50.942;18.144;2023-06-26T19:27:16;3.20;;;2.90;;
57315;SDS011;43156;50.942;18.144;2023-06-26T19:37:19;3.70;;;3.40;;
57315;SDS011;43156;50.942;18.144;2023-06-26T19:47:21;4.20;;;3.90;;
57315;SDS011;43156;50.942;18.144;2023-06-26T19:57:17;3.20;;;2.90;;
57315;SDS011;43156;50.942;18.144;2023-06-26T20:07:25;4.30;;;3.90;;
57315;SDS011;43156;50.942;18.144;2023-06-26T20:17:22;7.30;;;3.30;;
57315;SDS011;43156;50.942;18.144;2023-06-26T20:27:31;4.80;;;4.40;;
57315;SDS011;43156;50.942;18.144;2023-06-26T20:37:35;3.40;;;3.10;;
57315;SDS011;43156;50.942;18.144;2023-06-26T20:48:00;5.20;;;4.70;;
57315;SDS011;43156;50.942;18.144;2023-06-26T21:05:39;4.70;;;3.90;;
57315;SDS011;43156;50.942;18.144;2023-06-26T21:15:34;4.10;;;3.80;;
57315;SDS011;43156;50.942;18.144;2023-06-26T21:25:46;2.10;;;1.60;;
57315;SDS011;43156;50.942;18.144;2023-06-26T21:35:47;8.30;;;2.90;;
57315;SDS011;43156;50.942;18.144;2023-06-26T21:46:04;3.10;;;2.00;;
57315;SDS011;43156;50.942;18.144;2023-06-26T21:56:04;4.60;;;3.40;;
57315;SDS011;43156;50.942;18.144;2023-06-26T22:06:11;4.20;;;3.80;;
57315;SDS011;43156;50.942;18.144;2023-06-26T22:15:59;5.30;;;2.60;;
57315;SDS011;43156;50.942;18.144;2023-06-26T22:25:59;6.30;;;3.30;;
57315;SDS011;43156;50.942;18.144;2023-06-26T22:35:57;3.00;;;2.50;;
57315;SDS011;43156;50.942;18.144;2023-06-26T22:46:11;3.30;;;3.00;;
57315;SDS011;43156;50.942;18.144;2023-06-26T22:56:27;6.60;;;3.30;;
57315;SDS011;43156;50.942;18.144;2023-06-26T23:06:29;6.40;;;3.10;;
57315;SDS011;43156;50.942;18.144;2023-06-26T23:16:28;4.10;;;3.60;;
